Alyeska Resort
Max's Hourly Weather Roundup
ALYESKA_MAX 9/17/2014
Click Here for Graph

        DATE  TIME   Air  Wind  Wind  Wind  BATT   Rel
                    Temp   Spd   Dir  Gust  Volt  Hum%
                      F   MPH   AVG   MPH   AVG   AVG

   9/17/2014 11:00    38    13   104    34 13.07    96
   9/17/2014 10:00    38    14    90    43 12.77    95
   9/17/2014 09:00    38    12   106    38 12.74    95
   9/17/2014 08:00    38    17    65    42 12.74    96
   9/17/2014 07:00    38    23    69    49 12.74    94
   9/17/2014 06:00    38    20    83    42 12.75    94
   9/17/2014 05:00    39    13   100    32 12.75    96
   9/17/2014 04:00    39    12    94    33 12.76    98
   9/17/2014 03:00    39    10   148    35 12.78    96
   9/17/2014 02:00    39    10   125    31 12.80    95
   9/17/2014 01:00    39    10   165    31 12.83    97
   9/16/2014 24:00    39    10   120    28 12.86    94
   9/16/2014 23:00    39    13   108    29 12.89    94
   9/16/2014 22:00    40    17   107    31 12.93    93
   9/16/2014 21:00    40    18   104    31 12.98    95
   9/16/2014 20:00    41    16   100    32 13.08    94
   9/16/2014 19:00    41    15    99    30 13.25    95
   9/16/2014 18:00    41    15   100    27 13.47    97
   9/16/2014 17:00    42    11   107    24 13.60    95
   9/16/2014 16:00    43    12   111    24 13.63    92
   9/16/2014 15:00    43    14   103    27 13.60    95
   9/16/2014 14:00    42     9   100    24 13.71    98
   9/16/2014 13:00    42     7   115    17 13.62    99
   9/16/2014 12:00    41    10   113    18 13.49    98


Click Here for Graph